Time;durP1;ratioP1;P1;durP2;ratioP2;P2;SDS_P1;SDS_P2;PMS_P1;PMS_P2;Temp;Humidity;BMP_temperature;BMP_pressure;BME280_temperature;BME280_humidity;BME280_pressure;Samples;Min_cycle;Max_cycle;Signal;HPM_P1;HPM_P2
2022/11/27 00:00:07;;;;;;;10.57;3.93;;;;;6.40;101918.00;;;;10388387;28;20649;-78
2022/11/27 00:05:13;;;;;;;11.23;4.17;;;;;6.50;101900.00;;;;10428390;28;20220;-78
2022/11/27 00:10:15;;;;;;;18.40;4.60;;;;;6.50;101888.00;;;;10436152;28;20218;-78
2022/11/27 00:15:17;;;;;;;10.60;3.93;;;;;6.60;101886.00;;;;10391924;28;20198;-78
2022/11/27 00:20:19;;;;;;;10.73;4.43;;;;;6.60;101874.00;;;;10466328;28;20186;-78
2022/11/27 00:25:21;;;;;;;13.13;3.70;;;;;6.70;101858.00;;;;10440098;28;20217;-78
2022/11/27 00:30:23;;;;;;;11.37;4.07;;;;;6.70;101838.00;;;;10460329;28;20603;-78
2022/11/27 00:35:25;;;;;;;14.30;4.13;;;;;6.70;101819.00;;;;10424292;28;20187;-78
2022/11/27 00:40:27;;;;;;;10.50;3.47;;;;;6.70;101810.00;;;;10418732;28;20252;-78
2022/11/27 00:45:29;;;;;;;10.00;3.53;;;;;6.70;101800.00;;;;10420646;28;20217;-78
2022/11/27 00:50:31;;;;;;;9.93;3.60;;;;;6.70;101798.00;;;;10443338;28;20599;-78
2022/11/27 00:55:32;;;;;;;12.23;3.40;;;;;6.80;101810.00;;;;10459593;28;20197;-78
2022/11/27 01:00:34;;;;;;;7.70;2.87;;;;;6.80;101807.00;;;;10442843;28;20547;-78
2022/11/27 01:05:36;;;;;;;6.70;2.80;;;;;6.80;101804.00;;;;10426358;28;20239;-78
2022/11/27 01:10:38;;;;;;;12.63;3.10;;;;;6.80;101786.00;;;;10442271;28;20283;-78
2022/11/27 01:15:40;;;;;;;11.63;2.90;;;;;6.80;101789.00;;;;10426067;28;20190;-78
2022/11/27 01:20:42;;;;;;;7.27;2.70;;;;;6.80;101781.00;;;;10442214;28;20272;-78
2022/11/27 01:25:44;;;;;;;6.83;2.53;;;;;6.80;101781.00;;;;10426514;28;20218;-78
2022/11/27 01:30:46;;;;;;;11.60;3.57;;;;;6.80;101779.00;;;;10426097;28;20209;-79
2022/11/27 01:35:56;;;;;;;8.90;2.93;;;;;6.80;101773.00;;;;10452814;28;20222;-78
2022/11/27 01:41:04;;;;;;;11.77;3.93;;;;;6.80;101775.00;;;;10400944;28;20197;-78
2022/11/27 01:46:31;;;;;;;8.03;3.17;;;;;6.80;101771.00;;;;10405724;28;20202;-79
2022/11/27 01:51:55;;;;;;;7.30;2.97;;;;;6.80;101764.00;;;;10409401;28;20234;-78
2022/11/27 01:57:03;;;;;;;5.03;3.30;;;;;6.80;101747.00;;;;10479498;28;20197;-78
2022/11/27 02:02:05;;;;;;;9.57;3.10;;;;;6.80;101727.00;;;;10433525;28;20215;-79
2022/11/27 02:07:07;;;;;;;5.97;2.80;;;;;6.80;101708.00;;;;10408211;28;20230;-78
2022/11/27 02:12:26;;;;;;;5.77;2.70;;;;;6.80;101692.00;;;;10408390;28;20236;-78
2022/11/27 02:17:45;;;;;;;7.63;2.67;;;;;6.80;101680.00;;;;10447552;28;20197;-78
2022/11/27 02:23:05;;;;;;;8.27;2.33;;;;;6.80;101689.00;;;;10464436;28;20205;-78
2022/11/27 02:28:34;;;;;;;4.37;2.37;;;;;6.80;101689.00;;;;10448641;28;20246;-78
2022/11/27 02:33:44;;;;;;;9.17;2.50;;;;;6.80;101689.00;;;;10448216;28;20196;-78
2022/11/27 02:38:52;;;;;;;4.57;1.87;;;;;6.80;101699.00;;;;10432347;28;20194;-78
2022/11/27 02:43:56;;;;;;;7.07;2.73;;;;;6.80;101689.00;;;;10448046;28;20210;-78
2022/11/27 02:49:04;;;;;;;5.87;2.13;;;;;6.80;101679.00;;;;10448614;28;20198;-78
2022/11/27 02:54:09;;;;;;;5.20;2.30;;;;;6.70;101692.00;;;;10448285;28;20185;-79
2022/11/27 02:59:13;;;;;;;8.07;2.20;;;;;6.80;101686.00;;;;10446868;28;20189;-78
2022/11/27 03:04:20;;;;;;;7.00;2.67;;;;;6.80;101688.00;;;;10463922;28;20255;-78
2022/11/27 03:09:33;;;;;;;4.40;2.17;;;;;6.70;101688.00;;;;10480202;28;20263;-78
2022/11/27 03:14:36;;;;;;;5.53;2.13;;;;;6.70;101694.00;;;;10431298;28;20186;-78
2022/11/27 03:19:48;;;;;;;4.27;1.93;;;;;6.70;101694.00;;;;10430894;28;20182;-78
2022/11/27 03:24:50;;;;;;;5.33;2.10;;;;;6.70;101705.00;;;;10429860;28;20205;-79
2022/11/27 03:29:58;;;;;;;4.43;2.27;;;;;6.70;101691.00;;;;10446765;28;20193;-78
2022/11/27 03:35:01;;;;;;;3.30;2.03;;;;;6.80;101697.00;;;;10436953;28;20247;-78
2022/11/27 03:40:04;;;;;;;3.77;2.17;;;;;6.80;101685.00;;;;10429643;28;20605;-78
2022/11/27 03:45:15;;;;;;;4.43;2.30;;;;;6.80;101679.00;;;;10438198;28;20275;-78
2022/11/27 03:50:56;;;;;;;8.50;3.00;;;;;6.90;101686.00;;;;10440222;28;20228;-79
2022/11/27 03:56:30;;;;;;;4.83;2.57;;;;;6.90;101703.00;;;;10364764;28;20217;-78
2022/11/27 04:01:32;;;;;;;5.53;2.87;;;;;6.90;101698.00;;;;10461027;28;20206;-78
2022/11/27 04:06:34;;;;;;;6.50;2.53;;;;;6.90;101701.00;;;;10416201;28;20233;-78
2022/11/27 04:11:36;;;;;;;5.03;2.67;;;;;6.90;101708.00;;;;10403864;28;20194;-78
2022/11/27 04:16:38;;;;;;;8.10;2.60;;;;;6.80;101695.00;;;;10451864;28;20258;-78
2022/11/27 04:21:40;;;;;;;3.67;2.50;;;;;6.90;101674.00;;;;10452047;28;20208;-78
2022/11/27 04:26:41;;;;;;;7.17;2.93;;;;;6.90;101650.00;;;;10443294;28;20221;-79
2022/11/27 04:31:43;;;;;;;6.33;2.67;;;;;6.90;101676.00;;;;10443769;28;20193;-78
2022/11/27 04:36:45;;;;;;;7.90;2.80;;;;;6.90;101676.00;;;;10429620;28;20194;-78
2022/11/27 04:41:47;;;;;;;7.50;2.93;;;;;6.90;101659.00;;;;10402564;28;20244;-78
2022/11/27 04:46:49;;;;;;;7.63;2.57;;;;;6.80;101668.00;;;;10446740;28;20220;-78
2022/11/27 04:51:51;;;;;;;7.97;3.10;;;;;6.70;101673.00;;;;10459797;28;20231;-78
2022/11/27 04:56:53;;;;;;;7.57;3.40;;;;;6.60;101679.00;;;;10475853;28;20196;-78
2022/11/27 05:01:55;;;;;;;9.90;3.20;;;;;6.60;101680.00;;;;10459117;28;20182;-78
2022/11/27 05:06:57;;;;;;;12.80;2.87;;;;;6.50;101674.00;;;;10434747;28;20217;-78
2022/11/27 05:11:59;;;;;;;7.47;2.97;;;;;6.40;101654.00;;;;10426237;28;20205;-78
2022/11/27 05:17:01;;;;;;;10.00;3.10;;;;;6.40;101648.00;;;;10458668;28;20192;-78
2022/11/27 05:22:03;;;;;;;7.53;2.87;;;;;6.40;101649.00;;;;10474620;28;20201;-78
2022/11/27 05:27:05;;;;;;;9.03;2.80;;;;;6.30;101631.00;;;;10458688;28;20655;-78
2022/11/27 05:32:06;;;;;;;9.23;2.93;;;;;6.30;101633.00;;;;10441980;28;20205;-77
2022/11/27 05:37:08;;;;;;;5.53;3.33;;;;;6.30;101620.00;;;;10442067;28;20239;-78
2022/11/27 05:42:14;;;;;;;5.97;3.30;;;;;6.30;101600.00;;;;10441597;28;20201;-78
2022/11/27 05:47:16;;;;;;;11.40;3.10;;;;;6.30;101594.00;;;;10425622;28;20202;-78
2022/11/27 05:52:18;;;;;;;6.67;2.90;;;;;6.30;101584.00;;;;10425959;28;20198;-78
2022/11/27 05:57:20;;;;;;;9.47;2.87;;;;;6.30;101567.00;;;;10441299;28;20525;-79
2022/11/27 06:02:22;;;;;;;5.80;2.97;;;;;6.30;101553.00;;;;10425254;28;20242;-79
2022/11/27 06:07:30;;;;;;;10.17;3.57;;;;;6.30;101556.00;;;;10412046;28;20279;-78
2022/11/27 06:12:32;;;;;;;4.47;2.67;;;;;6.30;101559.00;;;;10441646;28;20232;-78
2022/11/27 06:17:34;;;;;;;8.87;3.33;;;;;6.30;101551.00;;;;10457317;28;20174;-78
2022/11/27 06:22:36;;;;;;;7.13;2.90;;;;;6.30;101544.00;;;;10411510;28;20205;-78
2022/11/27 06:27:38;;;;;;;5.67;2.87;;;;;6.30;101537.00;;;;10432632;28;20592;-78
2022/11/27 06:32:40;;;;;;;6.83;2.90;;;;;6.30;101524.00;;;;10403602;28;20256;-78
2022/11/27 06:37:42;;;;;;;5.50;2.67;;;;;6.40;101525.00;;;;10443469;28;20199;-78
2022/11/27 06:42:44;;;;;;;7.20;3.13;;;;;6.40;101515.00;;;;10455987;28;20200;-78
2022/11/27 06:47:46;;;;;;;9.17;3.90;;;;;6.40;101515.00;;;;10423239;28;20641;-78
2022/11/27 06:52:48;;;;;;;10.47;3.37;;;;;6.40;101501.00;;;;10464019;28;20624;-78
2022/11/27 06:57:50;;;;;;;6.87;3.40;;;;;6.40;101497.00;;;;10431338;28;20194;-78
2022/11/27 07:02:54;;;;;;;7.47;3.80;;;;;6.40;101488.00;;;;10430914;28;20208;-78
2022/11/27 07:07:57;;;;;;;7.53;3.67;;;;;6.50;101497.00;;;;10447180;28;20225;-78
2022/11/27 07:13:00;;;;;;;10.57;4.13;;;;;6.50;101503.00;;;;10430642;28;20235;-78
2022/11/27 07:18:02;;;;;;;7.07;3.30;;;;;6.50;101498.00;;;;10438451;28;20620;-78
2022/11/27 07:23:03;;;;;;;10.23;3.40;;;;;6.60;101494.00;;;;10413975;28;20197;-78
2022/11/27 07:28:05;;;;;;;7.37;3.27;;;;;6.60;101487.00;;;;10405189;28;20209;-78
2022/11/27 07:33:07;;;;;;;10.33;3.47;;;;;6.60;101494.00;;;;10405379;28;20186;-78
2022/11/27 07:38:09;;;;;;;9.33;3.37;;;;;6.70;101481.00;;;;10405929;28;20275;-78
2022/11/27 07:43:11;;;;;;;9.23;3.90;;;;;6.70;101475.00;;;;10456937;28;20201;-77
2022/11/27 07:48:13;;;;;;;7.33;2.87;;;;;6.70;101467.00;;;;10445898;28;20656;-78
2022/11/27 07:53:15;;;;;;;8.13;3.60;;;;;6.80;101467.00;;;;10445626;28;20173;-77
2022/11/27 07:58:17;;;;;;;6.93;3.20;;;;;6.80;101468.00;;;;10429337;28;20613;-78
2022/11/27 08:03:19;;;;;;;8.07;3.13;;;;;6.80;101466.00;;;;10461672;28;20263;-78
2022/11/27 08:08:21;;;;;;;6.33;3.40;;;;;6.80;101464.00;;;;10461399;28;20209;-78
2022/11/27 08:13:23;;;;;;;11.10;3.20;;;;;6.80;101465.00;;;;10428815;28;20194;-78
2022/11/27 08:18:25;;;;;;;6.63;3.17;;;;;6.90;101455.00;;;;10420350;28;20225;-78
2022/11/27 08:23:27;;;;;;;7.70;3.77;;;;;6.90;101448.00;;;;10419714;28;20573;-78
2022/11/27 08:28:28;;;;;;;9.33;3.50;;;;;6.90;101443.00;;;;10403948;28;20202;-78
2022/11/27 08:33:31;;;;;;;5.00;3.43;;;;;7.00;101437.00;;;;10386916;28;20194;-78
2022/11/27 08:38:33;;;;;;;5.37;3.30;;;;;7.10;101430.00;;;;10386630;28;20277;-78
2022/11/27 08:43:35;;;;;;;13.60;4.70;;;;;7.10;101433.00;;;;10419045;28;20210;-78
2022/11/27 08:48:37;;;;;;;7.07;3.20;;;;;7.20;101420.00;;;;10402616;28;20626;-78
2022/11/27 08:53:39;;;;;;;7.30;3.70;;;;;7.20;101424.00;;;;10385529;28;20191;-78
2022/11/27 08:58:42;;;;;;;5.83;2.83;;;;;7.20;101419.00;;;;10385911;28;20661;-78
2022/11/27 09:03:44;;;;;;;11.23;3.60;;;;;7.20;101419.00;;;;10418526;28;20220;-78
2022/11/27 09:08:47;;;;;;;4.63;2.83;;;;;7.20;101422.00;;;;10418323;28;20623;-78
2022/11/27 09:13:49;;;;;;;9.50;3.47;;;;;7.20;101426.00;;;;10385757;28;20599;-78
2022/11/27 09:18:53;;;;;;;7.27;3.27;;;;;7.20;101428.00;;;;10401365;28;20221;-79
2022/11/27 09:23:56;;;;;;;6.07;3.33;;;;;7.20;101423.00;;;;10417701;28;20232;-79
2022/11/27 09:28:59;;;;;;;6.90;3.60;;;;;7.20;101404.00;;;;10401341;28;20210;-79
2022/11/27 09:34:03;;;;;;;6.07;2.90;;;;;7.20;101407.00;;;;10444133;28;20213;-79
2022/11/27 09:39:05;;;;;;;6.10;3.33;;;;;7.20;101387.00;;;;10420779;28;20212;-78
2022/11/27 09:44:41;;;;;;;8.30;3.60;;;;;7.20;101388.00;;;;10458822;28;20201;-78
2022/11/27 09:49:59;;;;;;;11.33;4.20;;;;;7.20;101395.00;;;;10459297;28;20234;-79
2022/11/27 09:55:10;;;;;;;5.13;2.97;;;;;7.20;101394.00;;;;10458411;28;20191;-79
2022/11/27 10:00:19;;;;;;;7.17;2.63;;;;;7.30;101371.00;;;;10442442;28;20197;-79
2022/11/27 10:05:43;;;;;;;6.70;3.17;;;;;7.40;101373.00;;;;10442713;28;20289;-79
2022/11/27 10:10:45;;;;;;;5.97;3.33;;;;;7.60;101360.00;;;;10408560;28;20731;-80
2022/11/27 10:15:55;;;;;;;5.30;3.47;;;;;7.70;101347.00;;;;10412473;28;20202;-79
2022/11/27 10:21:05;;;;;;;7.37;3.20;;;;;7.80;101351.00;;;;10449014;28;20200;-79
2022/11/27 10:26:16;;;;;;;7.07;3.47;;;;;7.80;101338.00;;;;10464716;28;20213;-79
2022/11/27 10:31:35;;;;;;;6.00;3.47;;;;;7.60;101333.00;;;;10448700;28;20250;-80
2022/11/27 10:36:47;;;;;;;6.70;3.87;;;;;7.60;101332.00;;;;10448733;28;20189;-79
2022/11/27 10:41:58;;;;;;;9.60;3.63;;;;;7.60;101324.00;;;;10448433;28;20588;-79
2022/11/27 10:47:06;;;;;;;6.67;4.00;;;;;7.70;101329.00;;;;10448311;28;20214;-79
2022/11/27 10:52:14;;;;;;;6.93;3.73;;;;;7.80;101306.00;;;;10464415;28;20185;-79
2022/11/27 10:57:41;;;;;;;9.47;4.30;;;;;7.90;101306.00;;;;10464761;28;20669;-79
2022/11/27 11:02:43;;;;;;;10.00;3.83;;;;;8.00;101289.00;;;;10431676;28;20652;-79
2022/11/27 11:07:56;;;;;;;7.77;3.60;;;;;8.20;101271.00;;;;10425851;28;20218;-79
2022/11/27 11:13:10;;;;;;;8.27;4.20;;;;;8.30;101271.00;;;;10406575;28;20186;-79
2022/11/27 11:18:31;;;;;;;5.53;3.40;;;;;8.30;101270.00;;;;10446888;28;20599;-79
2022/11/27 11:23:35;;;;;;;13.67;4.03;;;;;8.40;101252.00;;;;10426074;28;20201;-79
2022/11/27 11:28:50;;;;;;;10.80;4.57;;;;;8.70;101236.00;;;;10405564;28;20198;-79
2022/11/27 11:33:56;;;;;;;7.27;4.40;;;;;8.90;101222.00;;;;10411809;28;20555;-79
2022/11/27 11:38:58;;;;;;;4.87;2.93;;;;;9.00;101214.00;;;;10405326;28;20240;-79
2022/11/27 11:44:02;;;;;;;7.23;3.93;;;;;9.10;101213.00;;;;10404352;28;20285;-78
2022/11/27 11:49:13;;;;;;;7.27;3.87;;;;;9.30;101203.00;;;;10388117;28;20653;-79
2022/11/27 11:54:33;;;;;;;7.67;3.90;;;;;9.50;101206.00;;;;10421061;28;20648;-79
2022/11/27 11:59:45;;;;;;;5.07;2.90;;;;;9.40;101208.00;;;;10388104;28;20182;-80
2022/11/27 12:05:17;;;;;;;6.37;3.60;;;;;9.30;101203.00;;;;10404239;28;20202;-79
2022/11/27 12:10:32;;;;;;;6.40;4.03;;;;;9.30;101195.00;;;;10403500;28;20231;-79
2022/11/27 12:15:43;;;;;;;6.93;3.97;;;;;9.30;101202.00;;;;10410499;28;20213;-79
2022/11/27 12:21:15;;;;;;;8.80;4.10;;;;;9.20;101191.00;;;;10442528;28;20193;-79
2022/11/27 12:26:41;;;;;;;7.77;3.83;;;;;9.00;101171.00;;;;10428269;28;20699;-79
2022/11/27 12:31:55;;;;;;;6.13;3.90;;;;;8.90;101162.00;;;;10426992;28;20728;-79
2022/11/27 12:37:20;;;;;;;9.03;4.23;;;;;8.80;101150.00;;;;10418633;28;20190;-79
2022/11/27 12:42:48;;;;;;;7.93;3.63;;;;;8.70;101151.00;;;;10430656;28;20596;-79
2022/11/27 12:47:53;;;;;;;8.57;4.10;;;;;8.60;101153.00;;;;10458119;28;20212;-79
2022/11/27 12:53:15;;;;;;;5.87;4.23;;;;;8.60;101149.00;;;;10459419;28;20666;-79
2022/11/27 12:58:27;;;;;;;7.33;4.27;;;;;8.50;101139.00;;;;10427025;28;20198;-78
2022/11/27 13:03:40;;;;;;;9.23;4.37;;;;;8.50;101122.00;;;;10418385;28;20206;-78
2022/11/27 13:08:59;;;;;;;8.40;4.13;;;;;8.50;101112.00;;;;10417292;28;20221;-79
2022/11/27 13:14:11;;;;;;;8.07;4.23;;;;;8.40;101111.00;;;;10442304;28;20943;-79
2022/11/27 13:19:42;;;;;;;9.00;4.03;;;;;8.40;101103.00;;;;10406978;28;20205;-79
2022/11/27 13:24:44;;;;;;;6.20;4.03;;;;;8.30;101099.00;;;;10458519;28;20209;-79
2022/11/27 13:30:23;;;;;;;6.27;4.43;;;;;8.30;101088.00;;;;10426482;28;20209;-79
2022/11/27 13:35:41;;;;;;;12.33;5.20;;;;;8.30;101080.00;;;;10413594;28;20197;-78
2022/11/27 13:40:46;;;;;;;9.20;4.67;;;;;8.30;101075.00;;;;10461318;28;20217;-78
2022/11/27 13:45:49;;;;;;;5.80;3.53;;;;;8.20;101083.00;;;;10450199;28;20543;-78
2022/11/27 13:50:52;;;;;;;9.13;4.70;;;;;8.20;101070.00;;;;10426188;28;20201;-78
2022/11/27 13:55:55;;;;;;;6.50;4.10;;;;;8.20;101054.00;;;;10409573;28;20194;-78
2022/11/27 14:00:58;;;;;;;6.07;3.80;;;;;8.10;101046.00;;;;10410297;28;20324;-79
2022/11/27 14:06:00;;;;;;;7.77;4.00;;;;;8.20;101041.00;;;;10424993;28;20296;-78
2022/11/27 14:11:05;;;;;;;6.63;4.63;;;;;8.20;101025.00;;;;10466160;28;20193;-79
2022/11/27 14:16:29;;;;;;;9.87;4.57;;;;;8.20;101004.00;;;;10433138;28;20641;-79
2022/11/27 14:21:37;;;;;;;6.50;4.00;;;;;8.20;101010.00;;;;10481867;28;20525;-79
2022/11/27 14:26:40;;;;;;;6.73;4.23;;;;;8.20;100998.00;;;;10465746;28;20217;-79
2022/11/27 14:31:42;;;;;;;5.97;3.80;;;;;8.20;101006.00;;;;10448937;28;20587;-79
2022/11/27 14:36:44;;;;;;;6.17;3.93;;;;;8.10;100990.00;;;;10435637;28;20198;-79
2022/11/27 14:41:57;;;;;;;10.07;3.80;;;;;8.10;100985.00;;;;10440783;28;20213;-79
2022/11/27 14:47:02;;;;;;;5.73;4.27;;;;;8.10;100977.00;;;;10440595;28;20237;-78
2022/11/27 14:52:10;;;;;;;7.87;3.50;;;;;8.10;100979.00;;;;10439063;28;20240;-79
2022/11/27 14:57:31;;;;;;;6.77;4.10;;;;;8.10;100971.00;;;;10439889;28;20277;-79
2022/11/27 15:02:33;;;;;;;6.27;4.10;;;;;8.00;100961.00;;;;10439807;28;20194;-79
2022/11/27 15:07:36;;;;;;;8.00;3.87;;;;;8.00;100964.00;;;;10406519;28;20313;-79
2022/11/27 15:12:48;;;;;;;8.80;4.53;;;;;8.00;100965.00;;;;10453752;28;20237;-79
2022/11/27 15:17:54;;;;;;;6.47;4.10;;;;;7.90;100952.00;;;;10438803;28;20182;-79
2022/11/27 15:22:58;;;;;;;7.03;3.93;;;;;7.90;100937.00;;;;10413354;28;20186;-78
2022/11/27 15:28:01;;;;;;;8.23;4.10;;;;;7.80;100931.00;;;;10448926;28;20283;-78
2022/11/27 15:33:02;;;;;;;7.43;3.73;;;;;7.80;100921.00;;;;10446031;28;20656;-78
2022/11/27 15:38:09;;;;;;;7.77;4.10;;;;;7.80;100911.00;;;;10405672;28;20194;-78
2022/11/27 15:43:14;;;;;;;7.63;3.87;;;;;7.70;100903.00;;;;10389668;28;20175;-78
2022/11/27 15:48:18;;;;;;;7.83;5.20;;;;;7.60;100902.00;;;;10438012;28;20669;-78
2022/11/27 15:53:20;;;;;;;7.03;4.20;;;;;7.60;100909.00;;;;10421688;28;20195;-78
2022/11/27 15:58:22;;;;;;;8.73;5.20;;;;;7.50;100903.00;;;;10420494;28;20194;-78
2022/11/27 16:03:24;;;;;;;9.90;4.93;;;;;7.50;100897.00;;;;10420696;28;20198;-78
2022/11/27 16:08:26;;;;;;;8.03;4.60;;;;;7.50;100879.00;;;;10437235;28;20225;-78
2022/11/27 16:13:28;;;;;;;8.93;5.33;;;;;7.50;100867.00;;;;10421116;28;20198;-78
2022/11/27 16:18:31;;;;;;;9.00;4.73;;;;;7.50;100861.00;;;;10461151;28;20186;-79
2022/11/27 16:23:34;;;;;;;11.73;4.53;;;;;7.40;100858.00;;;;10430295;28;20197;-78
2022/11/27 16:28:36;;;;;;;8.67;4.67;;;;;7.40;100859.00;;;;10460448;28;20217;-78
2022/11/27 16:33:38;;;;;;;6.77;5.13;;;;;7.40;100844.00;;;;10427881;28;20232;-79
2022/11/27 16:38:40;;;;;;;7.80;4.87;;;;;7.40;100832.00;;;;10443934;28;20189;-79
2022/11/27 16:43:48;;;;;;;9.07;4.83;;;;;7.40;100829.00;;;;10427226;28;20675;-79
2022/11/27 16:48:53;;;;;;;10.50;5.10;;;;;7.30;100820.00;;;;10460076;28;20240;-79
2022/11/27 16:53:57;;;;;;;8.60;5.23;;;;;7.30;100804.00;;;;10426979;28;20197;-79
2022/11/27 16:58:59;;;;;;;8.33;5.50;;;;;7.30;100797.00;;;;10459448;28;20190;-79
2022/11/27 17:04:07;;;;;;;10.47;5.03;;;;;7.30;100796.00;;;;10428403;28;20225;-79
2022/11/27 17:09:10;;;;;;;8.70;4.47;;;;;7.30;100790.00;;;;10460072;28;20627;-79
2022/11/27 17:14:12;;;;;;;10.93;4.97;;;;;7.30;100783.00;;;;10442729;28;20189;-79
2022/11/27 17:19:15;;;;;;;10.70;5.03;;;;;7.30;100776.00;;;;10407249;28;20771;-80
2022/11/27 17:24:18;;;;;;;8.17;4.27;;;;;7.20;100763.00;;;;10426783;28;20206;-79
2022/11/27 17:29:21;;;;;;;6.23;4.53;;;;;7.20;100758.00;;;;10426045;28;20236;-79
2022/11/27 17:34:23;;;;;;;7.17;4.67;;;;;7.20;100754.00;;;;10415654;28;20872;-79
2022/11/27 17:39:25;;;;;;;8.00;4.67;;;;;7.10;100727.00;;;;10438810;28;20186;-79
2022/11/27 17:44:27;;;;;;;7.37;4.53;;;;;7.10;100725.00;;;;10442566;28;20255;-79
2022/11/27 17:49:29;;;;;;;6.43;4.17;;;;;7.10;100725.00;;;;10442276;28;20197;-79
2022/11/27 17:54:31;;;;;;;9.27;5.93;;;;;7.10;100694.00;;;;10441963;28;20249;-79
2022/11/27 17:59:33;;;;;;;13.20;6.73;;;;;7.10;100708.00;;;;10426071;28;20194;-79
2022/11/27 18:04:36;;;;;;;10.00;5.13;;;;;7.10;100707.00;;;;10426130;28;20197;-79
2022/11/27 18:09:38;;;;;;;8.00;4.27;;;;;7.10;100720.00;;;;10458550;28;20205;-80
2022/11/27 18:14:40;;;;;;;8.57;4.70;;;;;7.10;100714.00;;;;10442353;28;20296;-80
2022/11/27 18:19:42;;;;;;;7.43;4.87;;;;;7.10;100712.00;;;;10425329;28;20224;-80
2022/11/27 18:24:44;;;;;;;8.70;5.07;;;;;7.00;100708.00;;;;10458785;28;20201;-80
2022/11/27 18:29:46;;;;;;;9.40;5.20;;;;;7.00;100706.00;;;;10448785;28;20292;-80
2022/11/27 18:34:51;;;;;;;6.57;4.53;;;;;7.00;100704.00;;;;10434832;28;20673;-80
2022/11/27 18:39:53;;;;;;;8.60;4.47;;;;;7.00;100693.00;;;;10440371;28;20197;-80
2022/11/27 18:44:55;;;;;;;7.67;4.67;;;;;7.00;100689.00;;;;10432835;28;20210;-80
2022/11/27 18:49:58;;;;;;;7.70;4.07;;;;;7.00;100673.00;;;;10448787;28;20568;-80
2022/11/27 18:55:01;;;;;;;7.73;4.73;;;;;7.00;100678.00;;;;10406880;28;20200;-80
2022/11/27 19:00:04;;;;;;;8.10;4.60;;;;;7.00;100662.00;;;;10406501;28;20664;-80
2022/11/27 19:05:08;;;;;;;7.07;4.13;;;;;7.00;100648.00;;;;10423262;28;20252;-80
2022/11/27 19:10:10;;;;;;;4.67;3.80;;;;;7.00;100640.00;;;;10422723;28;20297;-80
2022/11/27 19:15:12;;;;;;;6.20;4.03;;;;;7.00;100634.00;;;;10430991;28;20710;-80
2022/11/27 19:20:14;;;;;;;6.40;3.13;;;;;7.10;100622.00;;;;10447258;28;20200;-81
2022/11/27 19:25:17;;;;;;;6.93;3.40;;;;;7.10;100612.00;;;;10423637;28;20210;-80
2022/11/27 19:30:19;;;;;;;6.73;3.70;;;;;7.10;100604.00;;;;10411325;28;20214;-80
2022/11/27 19:35:24;;;;;;;5.07;3.20;;;;;7.10;100593.00;;;;10418437;28;20198;-80
2022/11/27 19:40:28;;;;;;;6.73;3.10;;;;;7.10;100592.00;;;;10434970;28;20197;-80
2022/11/27 19:45:34;;;;;;;3.57;2.97;;;;;7.20;100597.00;;;;10433608;28;20671;-80
2022/11/27 19:50:36;;;;;;;6.80;3.40;;;;;7.20;100591.00;;;;10434197;28;20202;-80
2022/11/27 19:55:38;;;;;;;4.67;3.00;;;;;7.20;100587.00;;;;10428551;28;20680;-80
2022/11/27 20:00:40;;;;;;;3.83;2.70;;;;;7.30;100568.00;;;;10407643;28;20201;-78
2022/11/27 20:05:43;;;;;;;7.73;2.70;;;;;7.30;100576.00;;;;10420103;28;20202;-79
2022/11/27 20:10:48;;;;;;;6.03;3.00;;;;;7.40;100557.00;;;;10424415;28;20213;-78
2022/11/27 20:15:51;;;;;;;3.43;2.77;;;;;7.40;100563.00;;;;10421112;28;20205;-78
2022/11/27 20:21:23;;;;;;;3.60;2.50;;;;;7.50;100556.00;;;;10425657;28;20224;-79
2022/11/27 20:26:27;;;;;;;6.37;2.37;;;;;7.60;100550.00;;;;10420474;28;20296;-78
2022/11/27 20:31:31;;;;;;;4.07;2.80;;;;;7.60;100548.00;;;;10445578;28;20206;-79
2022/11/27 20:36:37;;;;;;;4.70;2.87;;;;;7.70;100554.00;;;;10418927;28;20216;-78
2022/11/27 20:41:40;;;;;;;6.27;2.33;;;;;7.80;100549.00;;;;10436351;28;20198;-79
2022/11/27 20:46:41;;;;;;;5.73;2.53;;;;;7.90;100538.00;;;;10435792;28;20560;-79
2022/11/27 20:51:43;;;;;;;2.93;2.43;;;;;8.00;100519.00;;;;10429420;28;20285;-79
2022/11/27 20:56:48;;;;;;;3.90;2.73;;;;;8.00;100516.00;;;;10443482;28;20193;-79
2022/11/27 21:01:50;;;;;;;6.27;2.77;;;;;8.10;100515.00;;;;10428302;28;20284;-79
2022/11/27 21:06:57;;;;;;;4.77;2.80;;;;;8.10;100499.00;;;;10434039;28;20275;-78
2022/11/27 21:11:59;;;;;;;3.60;2.63;;;;;8.20;100489.00;;;;10446559;28;20194;-78
2022/11/27 21:17:01;;;;;;;5.13;2.60;;;;;8.30;100480.00;;;;10431970;28;20833;-79
2022/11/27 21:22:07;;;;;;;3.30;2.20;;;;;8.30;100467.00;;;;10405758;28;20648;-79
2022/11/27 21:27:10;;;;;;;5.43;2.50;;;;;8.30;100475.00;;;;10455238;28;20297;-79
2022/11/27 21:32:12;;;;;;;3.00;2.23;;;;;8.30;100471.00;;;;10443095;28;20208;-79
2022/11/27 21:37:14;;;;;;;5.20;2.33;;;;;8.30;100470.00;;;;10444778;28;20186;-79
2022/11/27 21:42:16;;;;;;;2.70;2.20;;;;;8.30;100454.00;;;;10447818;28;20222;-79
2022/11/27 21:47:18;;;;;;;4.53;2.30;;;;;8.40;100464.00;;;;10439078;28;20278;-79
2022/11/27 21:52:20;;;;;;;4.13;2.57;;;;;8.40;100462.00;;;;10427831;28;20216;-78
2022/11/27 21:57:22;;;;;;;3.07;2.27;;;;;8.40;100464.00;;;;10438870;28;20212;-78
2022/11/27 22:02:24;;;;;;;5.17;2.10;;;;;8.50;100453.00;;;;10411635;28;20661;-79
2022/11/27 22:07:27;;;;;;;2.63;1.67;;;;;8.60;100452.00;;;;10447118;28;20209;-78
2022/11/27 22:12:29;;;;;;;2.93;2.53;;;;;8.60;100443.00;;;;10442253;28;20618;-78
2022/11/27 22:17:31;;;;;;;8.43;2.50;;;;;8.60;100441.00;;;;10447733;28;20270;-78
2022/11/27 22:22:33;;;;;;;3.00;2.10;;;;;8.60;100441.00;;;;10440593;28;20282;-79
2022/11/27 22:27:36;;;;;;;5.63;2.40;;;;;8.60;100440.00;;;;10454445;28;20218;-79
2022/11/27 22:32:38;;;;;;;2.07;1.87;;;;;8.60;100442.00;;;;10453268;28;20204;-78
2022/11/27 22:37:40;;;;;;;3.77;2.10;;;;;8.60;100450.00;;;;10417652;28;20221;-78
2022/11/27 22:42:42;;;;;;;4.73;2.13;;;;;8.60;100444.00;;;;10433151;28;20201;-78
2022/11/27 22:47:43;;;;;;;3.63;1.83;;;;;8.60;100440.00;;;;10453513;28;20301;-78
2022/11/27 22:52:46;;;;;;;5.00;2.13;;;;;8.60;100446.00;;;;10443402;28;20194;-78
2022/11/27 22:57:48;;;;;;;2.50;1.93;;;;;8.60;100439.00;;;;10480107;28;20613;-78
2022/11/27 23:02:50;;;;;;;3.93;2.00;;;;;8.70;100438.00;;;;10456970;28;20205;-78
2022/11/27 23:07:51;;;;;;;3.87;2.10;;;;;8.60;100433.00;;;;10426718;28;20308;-78
2022/11/27 23:12:53;;;;;;;5.27;2.40;;;;;8.60;100442.00;;;;10468696;28;20676;-78
2022/11/27 23:17:56;;;;;;;6.73;2.63;;;;;8.60;100445.00;;;;10443542;28;20189;-78
2022/11/27 23:22:58;;;;;;;3.23;2.27;;;;;8.60;100448.00;;;;10420224;28;20225;-78
2022/11/27 23:28:00;;;;;;;2.93;2.17;;;;;8.50;100451.00;;;;10436631;28;20229;-78
2022/11/27 23:33:02;;;;;;;5.07;2.30;;;;;8.40;100446.00;;;;10437573;28;20619;-78
2022/11/27 23:38:04;;;;;;;4.10;1.93;;;;;8.30;100446.00;;;;10428731;28;20273;-78
2022/11/27 23:43:06;;;;;;;2.30;2.10;;;;;8.20;100442.00;;;;10441475;28;20675;-77
2022/11/27 23:48:08;;;;;;;3.67;2.30;;;;;8.10;100441.00;;;;10474458;28;20205;-78
2022/11/27 23:53:10;;;;;;;3.67;2.00;;;;;8.10;100432.00;;;;10475464;28;20235;-78
2022/11/27 23:58:11;;;;;;;4.30;2.37;;;;;8.10;100429.00;;;;10444142;28;20225;-78
